Time;durP1;ratioP1;P1;durP2;ratioP2;P2;SDS_P1;SDS_P2;PMS_P1;PMS_P2;Temp;Humidity;BMP_temperature;BMP_pressure;BME280_temperature;BME280_humidity;BME280_pressure;Samples;Min_cycle;Max_cycle;Signal;HPM_P1;HPM_P2
2023/05/09 00:00:13;;;;;;;12.38;10.30;;;;;;;17.31;80.44;99736.88;335580;28;5074;-73
2023/05/09 00:00:25;;;;;;;12.80;10.48;;;;;;;17.32;80.35;99733.31;334323;28;18957;-72
2023/05/09 00:00:38;;;;;;;12.60;9.98;;;;;;;17.32;80.40;99735.09;337053;28;4753;-72
2023/05/09 00:00:50;;;;;;;12.05;9.68;;;;;;;17.33;80.43;99736.81;334702;28;18073;-72
2023/05/09 00:01:09;;;;;;;12.82;9.75;;;;;;;17.31;80.64;99736.06;337019;28;5590;-72
2023/05/09 00:01:21;;;;;;;11.98;10.30;;;;;;;17.31;80.74;99733.44;333568;28;17495;-71
2023/05/09 00:01:34;;;;;;;12.30;10.55;;;;;;;17.30;80.74;99736.97;336179;28;5161;-71
2023/05/09 00:01:46;;;;;;;13.52;10.50;;;;;;;17.30;80.75;99729.09;333486;28;18184;-72
2023/05/09 00:01:58;;;;;;;14.18;10.70;;;;;;;17.26;80.85;99728.41;336075;28;4588;-72
2023/05/09 00:02:10;;;;;;;13.27;10.40;;;;;;;17.28;80.79;99733.59;333394;28;8861;-72
2023/05/09 00:02:22;;;;;;;12.85;10.48;;;;;;;17.27;80.76;99732.75;336046;28;4543;-73
2023/05/09 00:02:34;;;;;;;14.18;10.40;;;;;;;17.27;80.92;99731.91;333004;28;16067;-73
2023/05/09 00:02:47;;;;;;;14.82;10.40;;;;;;;17.27;80.87;99737.16;336177;28;4603;-72
2023/05/09 00:02:59;;;;;;;14.43;10.65;;;;;;;17.27;80.98;99734.53;332672;28;9632;-73
2023/05/09 00:03:13;;;;;;;14.23;10.70;;;;;;;17.26;80.84;99728.41;335768;28;5299;-72
2023/05/09 00:03:25;;;;;;;15.23;10.77;;;;;;;17.23;81.15;99731.25;332533;28;18062;-72
2023/05/09 00:03:38;;;;;;;14.55;10.50;;;;;;;17.24;81.16;99738.16;336825;28;5211;-71
2023/05/09 00:03:50;;;;;;;12.63;10.23;;;;;;;17.25;81.05;99728.53;333930;28;18276;-71
2023/05/09 00:04:02;;;;;;;12.27;10.32;;;;;;;17.25;81.07;99725.91;336060;28;5419;-71
2023/05/09 00:04:15;;;;;;;13.15;10.60;;;;;;;17.23;80.76;99733.88;334217;28;18321;-71
2023/05/09 00:04:29;;;;;;;14.02;10.63;;;;;;;17.24;80.91;99724.19;335401;29;5508;-71
2023/05/09 00:04:41;;;;;;;14.23;10.18;;;;;;;17.20;80.97;99728.78;333671;29;18100;-71
2023/05/09 00:04:53;;;;;;;13.52;9.80;;;;;;;17.22;81.19;99739.22;335404;29;4628;-71
2023/05/09 00:05:06;;;;;;;13.00;9.63;;;;;;;17.23;81.08;99719.91;333326;29;18110;-71
2023/05/09 00:05:20;;;;;;;13.82;10.05;;;;;;;17.22;81.08;99728.69;331919;28;5193;-73
2023/05/09 00:05:32;;;;;;;14.60;10.32;;;;;;;17.23;81.20;99731.25;336965;28;4481;-73
2023/05/09 00:05:45;;;;;;;14.73;10.40;;;;;;;17.23;81.18;99730.41;334317;28;8369;-73
2023/05/09 00:05:56;;;;;;;12.23;10.38;;;;;;;17.22;81.23;99729.53;337335;28;5443;-72
2023/05/09 00:06:10;;;;;;;12.95;10.07;;;;;;;17.23;81.15;99722.53;336173;28;4616;-71
2023/05/09 00:06:22;;;;;;;13.15;9.88;;;;;;;17.23;81.11;99727.78;334100;28;18308;-72
2023/05/09 00:06:34;;;;;;;12.68;9.88;;;;;;;17.22;80.96;99729.53;333178;29;9897;-73
2023/05/09 00:06:46;;;;;;;12.63;9.90;;;;;;;17.22;81.04;99726.06;335112;28;4858;-72
2023/05/09 00:06:58;;;;;;;12.73;10.05;;;;;;;17.20;81.33;99730.56;335068;28;4761;-72
2023/05/09 00:07:10;;;;;;;13.48;9.88;;;;;;;17.21;81.28;99732.28;331360;29;20939;-72
2023/05/09 00:07:22;;;;;;;13.52;9.98;;;;;;;17.20;81.25;99725.31;335382;29;5192;-72
2023/05/09 00:07:34;;;;;;;13.10;9.68;;;;;;;17.19;81.18;99726.28;335973;28;10609;-71
2023/05/09 00:07:47;;;;;;;13.65;10.55;;;;;;;17.16;81.42;99728.13;333106;28;18691;-72
2023/05/09 00:07:59;;;;;;;13.80;10.75;;;;;;;17.17;81.47;99724.56;333772;29;4670;-72
2023/05/09 00:08:11;;;;;;;12.80;10.23;;;;;;;17.17;81.31;99727.19;331720;29;17755;-72
2023/05/09 00:08:23;;;;;;;13.18;10.00;;;;;;;17.17;81.26;99727.19;333651;29;4707;-72
2023/05/09 00:08:35;;;;;;;12.48;9.85;;;;;;;17.17;81.17;99727.19;330643;29;4566;-72
2023/05/09 00:08:47;;;;;;;12.63;9.90;;;;;;;17.16;81.11;99725.50;334627;29;4680;-71
2023/05/09 00:08:59;;;;;;;13.63;10.15;;;;;;;17.16;81.15;99725.50;333268;28;5273;-71
2023/05/09 00:09:11;;;;;;;13.35;10.20;;;;;;;17.17;81.11;99721.09;335889;28;5348;-71
2023/05/09 00:09:24;;;;;;;14.15;10.48;;;;;;;17.15;81.17;99729.06;334140;28;5211;-72
2023/05/09 00:09:36;;;;;;;14.98;10.82;;;;;;;17.14;81.43;99722.13;333411;28;18414;-71
2023/05/09 00:09:48;;;;;;;14.98;10.68;;;;;;;17.15;81.22;99729.06;334519;29;4673;-71
2023/05/09 00:10:00;;;;;;;12.80;10.38;;;;;;;17.13;81.42;99728.31;332180;29;18395;-71
2023/05/09 00:10:13;;;;;;;11.18;9.82;;;;;;;17.14;81.44;99727.38;334562;29;4741;-71
2023/05/09 00:10:26;;;;;;;12.18;10.30;;;;;;;17.14;81.26;99727.38;322843;29;18128;-73
2023/05/09 00:10:38;;;;;;;12.98;10.30;;;;;;;17.13;81.40;99724.84;335126;29;5439;-73
2023/05/09 00:10:51;;;;;;;12.90;10.38;;;;;;;17.13;81.36;99725.69;330766;29;18199;-73
2023/05/09 00:11:03;;;;;;;11.93;10.07;;;;;;;17.15;81.36;99723.81;334299;29;4564;-73
2023/05/09 00:11:14;;;;;;;11.63;9.93;;;;;;;17.13;81.15;99725.69;330745;29;18009;-73
2023/05/09 00:11:29;;;;;;;12.07;9.95;;;;;;;17.14;81.18;99722.13;333566;29;4685;-72
2023/05/09 00:11:41;;;;;;;12.48;10.13;;;;;;;17.14;81.17;99722.13;331313;29;17976;-71
2023/05/09 00:11:53;;;;;;;12.30;10.25;;;;;;;17.15;81.35;99723.81;333696;29;7183;-71
2023/05/09 00:12:05;;;;;;;12.27;10.40;;;;;;;17.15;81.46;99722.97;330614;29;19206;-72
2023/05/09 00:12:17;;;;;;;12.98;10.63;;;;;;;17.14;81.40;99722.13;333799;29;5633;-72
2023/05/09 00:12:29;;;;;;;13.45;10.25;;;;;;;17.14;81.36;99722.13;332701;29;4579;-73
2023/05/09 00:12:42;;;;;;;14.07;10.33;;;;;;;17.13;81.42;99720.44;334897;29;4568;-73
2023/05/09 00:12:55;;;;;;;14.90;10.70;;;;;;;17.13;81.48;99714.34;332114;29;9208;-73
2023/05/09 00:13:08;;;;;;;13.63;10.45;;;;;;;17.13;81.53;99723.06;334909;29;4647;-72
2023/05/09 00:13:20;;;;;;;11.98;10.07;;;;;;;17.12;81.56;99726.63;331262;29;18451;-72
2023/05/09 00:13:33;;;;;;;12.73;10.05;;;;;;;17.11;81.75;99717.03;333880;29;4573;-72
2023/05/09 00:13:47;;;;;;;13.68;10.25;;;;;;;17.10;81.57;99712.75;330999;29;18054;-71
2023/05/09 00:14:01;;;;;;;13.70;10.32;;;;;;;17.11;81.53;99719.66;332865;28;17916;-71
2023/05/09 00:14:13;;;;;;;12.45;10.07;;;;;;;17.09;81.74;99713.66;335734;28;5333;-73
2023/05/09 00:14:26;;;;;;;14.95;10.60;;;;;;;17.08;81.57;99717.25;333264;28;5110;-74
2023/05/09 00:14:39;;;;;;;15.38;10.75;;;;;;;17.09;81.55;99723.34;336543;28;4542;-73
2023/05/09 00:14:53;;;;;;;14.02;10.45;;;;;;;17.09;81.53;99716.28;333249;28;18215;-74
2023/05/09 00:15:07;;;;;;;13.75;10.43;;;;;;;17.08;81.45;99719.88;333406;29;17867;-73
2023/05/09 00:15:19;;;;;;;14.35;10.50;;;;;;;17.10;81.60;99720.63;336479;28;4734;-73
2023/05/09 00:15:31;;;;;;;14.15;10.65;;;;;;;17.10;81.88;99717.13;334874;28;19685;-74
2023/05/09 00:15:43;;;;;;;14.13;10.80;;;;;;;17.08;81.65;99712.00;337477;28;5417;-73
2023/05/09 00:15:58;;;;;;;13.35;10.63;;;;;;;17.09;81.61;99711.03;334793;28;18270;-73
2023/05/09 00:16:10;;;;;;;12.15;10.40;;;;;;;17.10;81.58;99719.75;335124;28;5262;-73
2023/05/09 00:16:22;;;;;;;13.07;10.65;;;;;;;17.09;81.57;99718.06;336877;28;4727;-73
2023/05/09 00:16:35;;;;;;;13.52;10.77;;;;;;;17.06;81.68;99713.81;332818;29;18340;-73
2023/05/09 00:16:47;;;;;;;13.98;10.57;;;;;;;17.08;81.69;99714.63;335858;29;5496;-73
2023/05/09 00:17:00;;;;;;;12.98;10.10;;;;;;;17.09;81.77;99718.91;334900;28;19300;-71
2023/05/09 00:17:13;;;;;;;13.30;10.23;;;;;;;17.09;81.83;99712.81;335928;28;5350;-72
2023/05/09 00:17:27;;;;;;;15.55;10.95;;;;;;;17.09;81.96;99713.66;334006;28;17937;-71
2023/05/09 00:17:39;;;;;;;14.40;11.05;;;;;;;17.09;81.68;99712.81;335006;28;4741;-73
2023/05/09 00:17:51;;;;;;;13.75;10.95;;;;;;;17.07;81.84;99707.66;336945;28;4657;-74
2023/05/09 00:18:03;;;;;;;14.30;10.75;;;;;;;17.08;81.79;99716.38;337354;28;4494;-73
2023/05/09 00:18:16;;;;;;;15.52;11.07;;;;;;;17.07;81.77;99707.66;333927;28;18198;-73
2023/05/09 00:18:29;;;;;;;14.65;11.30;;;;;;;17.09;81.68;99707.56;336328;28;4639;-73
2023/05/09 00:18:42;;;;;;;14.27;11.23;;;;;;;17.08;81.70;99712.00;334468;28;17878;-73
2023/05/09 00:18:56;;;;;;;14.70;11.18;;;;;;;17.07;81.66;99710.28;334001;28;7990;-71
2023/05/09 00:19:08;;;;;;;14.32;10.88;;;;;;;17.07;81.92;99710.28;336049;28;5442;-71
2023/05/09 00:19:20;;;;;;;13.10;10.43;;;;;;;17.07;81.73;99705.03;333658;28;18120;-71
2023/05/09 00:19:32;;;;;;;12.93;10.57;;;;;;;17.06;81.84;99708.56;336138;28;4802;-72
2023/05/09 00:19:44;;;;;;;13.85;10.95;;;;;;;17.07;81.96;99710.28;333199;29;16477;-72
2023/05/09 00:19:56;;;;;;;13.32;11.13;;;;;;;17.08;82.10;99708.50;335632;29;4670;-73
2023/05/09 00:20:11;;;;;;;13.88;11.13;;;;;;;17.07;81.94;99710.28;336237;28;5896;-73
2023/05/09 00:20:23;;;;;;;17.15;11.07;;;;;;;17.06;81.91;99705.94;333677;28;18227;-72
2023/05/09 00:20:35;;;;;;;17.35;10.80;;;;;;;17.05;82.17;99711.31;333067;28;18251;-72
2023/05/09 00:20:49;;;;;;;14.13;10.80;;;;;;;17.04;81.98;99705.19;335964;28;5192;-73
2023/05/09 00:21:02;;;;;;;14.07;10.93;;;;;;;17.05;82.03;99706.06;332351;28;18108;-72
2023/05/09 00:21:14;;;;;;;15.18;11.50;;;;;;;17.03;81.90;99708.78;333689;28;6012;-72
2023/05/09 00:21:27;;;;;;;15.68;11.63;;;;;;;17.03;81.89;99707.94;336642;28;5238;-71
2023/05/09 00:21:39;;;;;;;13.48;11.27;;;;;;;17.03;82.17;99703.53;336976;28;4540;-71
2023/05/09 00:21:51;;;;;;;13.40;11.05;;;;;;;17.02;82.15;99704.44;334264;28;18174;-71
2023/05/09 00:22:03;;;;;;;13.60;11.20;;;;;;;17.02;82.03;99707.06;336453;28;4717;-74
2023/05/09 00:22:20;;;;;;;13.48;11.18;;;;;;;17.01;82.11;99702.75;333349;28;11346;-73
2023/05/09 00:22:32;;;;;;;13.90;11.30;;;;;;;17.01;82.20;99702.75;333796;28;17428;-71
2023/05/09 00:22:44;;;;;;;15.68;11.32;;;;;;;16.97;82.41;99701.25;337733;28;4547;-71
2023/05/09 00:22:56;;;;;;;15.63;11.15;;;;;;;16.99;82.73;99701.16;334427;28;18360;-72
2023/05/09 00:23:08;;;;;;;13.85;11.18;;;;;;;16.98;82.31;99705.56;337055;28;5432;-72
2023/05/09 00:23:20;;;;;;;13.20;10.63;;;;;;;16.97;82.40;99696.84;334115;28;10172;-73
2023/05/09 00:23:32;;;;;;;13.65;10.75;;;;;;;16.97;82.53;99703.88;335523;29;4639;-73
2023/05/09 00:23:45;;;;;;;14.13;11.23;;;;;;;16.96;82.40;99697.78;336202;28;4695;-73
2023/05/09 00:23:59;;;;;;;16.42;11.68;;;;;;;16.98;82.79;99700.31;334338;28;16748;-73
2023/05/09 00:24:11;;;;;;;17.13;11.43;;;;;;;16.96;82.65;99696.91;332924;29;17931;-72
2023/05/09 00:24:23;;;;;;;15.27;11.40;;;;;;;16.96;82.62;99699.53;336213;28;5462;-71
2023/05/09 00:24:35;;;;;;;15.02;11.43;;;;;;;16.96;82.26;99695.16;333001;28;6933;-72
2023/05/09 00:24:47;;;;;;;13.68;11.25;;;;;;;16.96;81.92;99700.41;335404;28;4608;-72
2023/05/09 00:24:59;;;;;;;13.90;11.18;;;;;;;16.95;82.24;99701.34;335312;28;5317;-72
2023/05/09 00:25:11;;;;;;;14.85;12.10;;;;;;;16.95;82.19;99695.25;333133;28;18040;-72
2023/05/09 00:25:24;;;;;;;14.40;11.90;;;;;;;16.94;82.11;99704.91;335806;29;5164;-72
2023/05/09 00:25:36;;;;;;;13.70;11.30;;;;;;;16.95;82.60;99701.34;333402;29;18155;-71
2023/05/09 00:25:48;;;;;;;15.63;11.18;;;;;;;16.95;82.56;99697.88;335079;29;6053;-72
2023/05/09 00:26:00;;;;;;;16.27;11.80;;;;;;;16.94;82.58;99693.53;331725;29;16515;-72
2023/05/09 00:26:12;;;;;;;16.48;11.57;;;;;;;16.93;82.50;99697.97;334525;29;5139;-72
2023/05/09 00:26:25;;;;;;;16.17;11.40;;;;;;;16.94;82.61;99690.91;333335;29;4697;-74
2023/05/09 00:26:37;;;;;;;13.57;11.05;;;;;;;16.94;82.64;99704.03;330215;29;19282;-73
2023/05/09 00:26:48;;;;;;;14.20;11.20;;;;;;;16.93;82.71;99694.50;332705;29;5529;-74
2023/05/09 00:27:00;;;;;;;14.35;11.20;;;;;;;16.94;82.48;99704.03;331387;29;18709;-73
2023/05/09 00:27:13;;;;;;;14.27;11.27;;;;;;;16.92;82.64;99696.28;335137;29;4532;-74
2023/05/09 00:27:25;;;;;;;15.60;11.70;;;;;;;16.93;82.29;99697.13;333149;28;7958;-73
2023/05/09 00:27:38;;;;;;;15.38;11.77;;;;;;;16.93;82.32;99697.13;334179;29;4504;-72
2023/05/09 00:27:50;;;;;;;15.63;11.73;;;;;;;16.90;82.12;99692.91;332167;29;9278;-72
2023/05/09 00:28:02;;;;;;;15.80;11.73;;;;;;;16.91;82.25;99704.25;335255;29;4765;-71
2023/05/09 00:28:14;;;;;;;15.07;11.75;;;;;;;16.91;82.29;99699.00;335067;28;5084;-71
2023/05/09 00:28:26;;;;;;;14.15;11.57;;;;;;;16.88;82.30;99699.16;334454;28;17909;-71
2023/05/09 00:28:38;;;;;;;13.95;11.52;;;;;;;16.85;82.50;99699.34;336132;29;4670;-71
2023/05/09 00:28:50;;;;;;;14.15;11.55;;;;;;;16.82;82.91;99695.13;333003;28;16453;-71
2023/05/09 00:29:02;;;;;;;14.90;11.60;;;;;;;16.82;82.89;99696.88;337150;28;5171;-71
2023/05/09 00:29:14;;;;;;;14.25;11.07;;;;;;;16.83;82.98;99701.22;336683;28;5225;-71
2023/05/09 00:29:26;;;;;;;14.20;11.05;;;;;;;16.73;82.48;99691.19;334552;28;17025;-71
2023/05/09 00:29:38;;;;;;;13.90;11.07;;;;;;;16.77;82.73;99697.97;337398;28;4649;-71
2023/05/09 00:29:50;;;;;;;14.05;11.40;;;;;;;16.78;82.44;99689.16;334741;28;16310;-71
2023/05/09 00:30:03;;;;;;;15.13;11.77;;;;;;;16.76;82.46;99692.78;337335;28;4541;-73
2023/05/09 00:30:15;;;;;;;16.85;12.38;;;;;;;16.73;82.57;99691.19;334712;28;5588;-73
2023/05/09 00:30:27;;;;;;;16.10;12.10;;;;;;;16.74;82.91;99698.16;337148;28;4543;-73
2023/05/09 00:30:39;;;;;;;14.70;11.23;;;;;;;16.72;82.63;99692.16;335438;29;5200;-73
2023/05/09 00:30:51;;;;;;;15.02;11.32;;;;;;;16.70;82.61;99691.38;335516;28;17397;-73
2023/05/09 00:31:04;;;;;;;16.67;11.95;;;;;;;16.70;82.93;99691.38;337611;28;4678;-73
2023/05/09 00:31:16;;;;;;;16.55;12.07;;;;;;;16.71;83.02;99698.31;333353;28;19174;-73
2023/05/09 00:31:28;;;;;;;14.75;11.80;;;;;;;16.72;82.94;99689.53;337146;28;4514;-70
2023/05/09 00:31:40;;;;;;;14.98;11.73;;;;;;;16.70;83.12;99691.38;334212;28;16692;-71
2023/05/09 00:31:52;;;;;;;16.42;11.90;;;;;;;16.71;83.14;99686.97;337218;28;4593;-71
2023/05/09 00:32:04;;;;;;;16.75;11.93;;;;;;;16.71;82.94;99693.06;337480;28;4808;-72
2023/05/09 00:32:16;;;;;;;16.10;12.00;;;;;;;16.70;83.03;99687.91;334241;28;19141;-73
2023/05/09 00:32:28;;;;;;;15.82;12.15;;;;;;;16.69;83.14;99689.69;337422;28;5174;-73
2023/05/09 00:32:40;;;;;;;15.35;11.95;;;;;;;16.70;83.12;99691.38;335150;28;18124;-71
2023/05/09 00:32:52;;;;;;;14.13;11.50;;;;;;;16.70;83.11;99693.16;337419;28;4539;-72
2023/05/09 00:33:05;;;;;;;14.57;11.73;;;;;;;16.70;83.32;99691.38;334767;28;9611;-71
2023/05/09 00:33:18;;;;;;;14.30;11.77;;;;;;;16.71;83.05;99695.69;337500;28;4683;-72
2023/05/09 00:33:30;;;;;;;15.00;11.55;;;;;;;16.73;83.03;99695.59;333954;28;10650;-72
2023/05/09 00:33:42;;;;;;;15.40;11.80;;;;;;;16.71;83.18;99687.81;336221;28;5427;-72
2023/05/09 00:33:54;;;;;;;14.52;11.73;;;;;;;16.71;83.10;99693.06;336365;28;4703;-71
2023/05/09 00:34:06;;;;;;;14.75;11.55;;;;;;;16.71;83.02;99687.81;334629;28;18226;-72
2023/05/09 00:34:17;;;;;;;15.05;11.63;;;;;;;16.73;82.99;99691.19;337505;28;4704;-73
2023/05/09 00:34:29;;;;;;;15.45;11.38;;;;;;;16.73;83.19;99695.59;334574;28;5782;-73
2023/05/09 00:34:42;;;;;;;13.40;10.80;;;;;;;16.73;83.00;99690.34;337446;28;5172;-73
2023/05/09 00:34:55;;;;;;;14.50;11.43;;;;;;;16.72;82.95;99694.78;337011;28;5131;-72
2023/05/09 00:35:07;;;;;;;15.33;11.63;;;;;;;16.73;83.15;99690.34;334438;28;18417;-72
2023/05/09 00:35:19;;;;;;;14.48;11.60;;;;;;;16.72;83.02;99694.78;335678;28;4768;-72
2023/05/09 00:35:31;;;;;;;14.38;11.57;;;;;;;16.70;83.13;99690.53;336264;28;18152;-72
2023/05/09 00:35:43;;;;;;;13.82;11.60;;;;;;;16.70;83.06;99696.63;335958;29;5074;-71
2023/05/09 00:35:55;;;;;;;14.55;11.52;;;;;;;16.68;83.32;99693.25;334479;28;19006;-71
2023/05/09 00:36:07;;;;;;;14.63;11.43;;;;;;;16.68;82.98;99693.25;337122;28;4650;-72
2023/05/09 00:36:20;;;;;;;15.82;11.95;;;;;;;16.66;83.07;99689.00;336826;28;5875;-72
2023/05/09 00:36:32;;;;;;;15.70;11.68;;;;;;;16.64;83.36;99694.38;334501;28;19522;-71
2023/05/09 00:36:44;;;;;;;15.63;11.20;;;;;;;16.64;83.24;99689.13;336137;28;4898;-72
2023/05/09 00:36:56;;;;;;;16.33;11.43;;;;;;;16.66;83.34;99689.88;333785;29;18305;-72
2023/05/09 00:37:08;;;;;;;17.58;11.95;;;;;;;16.64;83.33;99697.00;334796;28;4535;-72
2023/05/09 00:37:20;;;;;;;17.48;12.10;;;;;;;16.65;83.23;99693.41;330279;29;18017;-72
2023/05/09 00:37:32;;;;;;;15.35;11.52;;;;;;;16.65;83.32;99688.16;332899;29;4663;-72
2023/05/09 00:37:44;;;;;;;15.90;11.63;;;;;;;16.64;83.46;99696.13;331426;29;4744;-72
2023/05/09 00:37:56;;;;;;;15.98;12.10;;;;;;;16.63;83.72;99700.53;330564;29;18920;-71
2023/05/09 00:38:08;;;;;;;14.75;11.95;;;;;;;16.64;83.55;99697.00;333545;29;4645;-71
2023/05/09 00:38:23;;;;;;;14.30;11.50;;;;;;;16.65;83.71;99696.03;330662;29;18383;-73
2023/05/09 00:38:35;;;;;;;15.05;11.80;;;;;;;16.65;83.69;99698.66;330896;29;18330;-73
2023/05/09 00:38:47;;;;;;;15.52;11.88;;;;;;;16.65;83.75;99696.03;333809;29;4577;-73
2023/05/09 00:39:00;;;;;;;14.05;11.13;;;;;;;16.67;83.59;99694.16;331810;29;18275;-73
2023/05/09 00:39:12;;;;;;;13.63;11.00;;;;;;;16.66;83.44;99689.00;335538;28;4564;-73
2023/05/09 00:39:24;;;;;;;14.98;11.60;;;;;;;16.67;83.40;99694.16;335493;28;4678;-72
2023/05/09 00:39:37;;;;;;;16.27;11.88;;;;;;;16.68;83.42;99695.00;333605;29;18375;-72
2023/05/09 00:39:49;;;;;;;16.13;11.88;;;;;;;16.64;82.92;99689.13;335196;29;5094;-72
2023/05/09 00:40:03;;;;;;;16.05;11.90;;;;;;;16.64;83.34;99690.88;332733;29;18270;-72
2023/05/09 00:40:15;;;;;;;16.40;11.73;;;;;;;16.64;83.32;99686.50;335196;28;8291;-71
2023/05/09 00:40:26;;;;;;;15.52;11.07;;;;;;;16.66;83.35;99689.88;336132;28;17248;-72
2023/05/09 00:40:38;;;;;;;13.85;10.75;;;;;;;16.66;83.33;99689.88;336464;28;5706;-71
2023/05/09 00:40:52;;;;;;;14.35;10.90;;;;;;;16.63;83.29;99700.53;333949;28;18156;-72
2023/05/09 00:41:04;;;;;;;14.52;11.20;;;;;;;16.60;83.37;99689.34;337290;28;4858;-72
2023/05/09 00:41:16;;;;;;;15.07;11.57;;;;;;;16.56;83.10;99696.59;333267;29;18086;-72
2023/05/09 00:41:28;;;;;;;15.10;11.55;;;;;;;16.56;83.28;99693.97;335729;29;5092;-73
2023/05/09 00:41:40;;;;;;;15.85;11.85;;;;;;;16.54;83.57;99693.16;333715;29;4739;-72
2023/05/09 00:41:52;;;;;;;15.85;12.07;;;;;;;16.52;83.71;99692.41;335989;29;4697;-71
2023/05/09 00:42:04;;;;;;;16.20;12.15;;;;;;;16.51;84.02;99691.56;336082;29;5253;-72
2023/05/09 00:42:17;;;;;;;14.68;11.65;;;;;;;16.53;84.02;99691.50;332931;29;17677;-72
2023/05/09 00:42:29;;;;;;;16.15;11.70;;;;;;;16.53;84.12;99687.09;335902;29;4628;-71
2023/05/09 00:42:41;;;;;;;16.45;11.60;;;;;;;16.53;84.00;99691.50;333452;29;5490;-72
2023/05/09 00:42:54;;;;;;;15.85;12.07;;;;;;;16.53;83.89;99694.13;336304;29;4534;-73
2023/05/09 00:43:09;;;;;;;15.57;12.18;;;;;;;16.53;84.00;99691.50;332765;29;17937;-73
2023/05/09 00:43:21;;;;;;;14.73;11.98;;;;;;;16.52;83.79;99693.28;328816;28;18214;-73
2023/05/09 00:43:33;;;;;;;15.68;12.07;;;;;;;16.52;84.25;99692.41;337216;28;4739;-72
2023/05/09 00:43:45;;;;;;;15.93;12.10;;;;;;;16.51;84.11;99695.97;334621;28;16254;-73
2023/05/09 00:43:57;;;;;;;16.58;12.45;;;;;;;16.51;84.11;99691.56;337293;28;4622;-73
2023/05/09 00:44:09;;;;;;;16.83;12.57;;;;;;;16.52;84.03;99688.03;336994;28;4680;-73
2023/05/09 00:44:21;;;;;;;17.15;12.00;;;;;;;16.55;nan;99687.00;333910;28;18293;-73
2023/05/09 00:44:33;;;;;;;16.80;11.70;;;;;;;16.56;83.93;99688.72;337659;28;5370;-71
2023/05/09 00:44:45;;;;;;;15.55;11.45;;;;;;;16.57;83.97;99690.38;334635;28;10948;-71
2023/05/09 00:44:57;;;;;;;14.20;11.38;;;;;;;16.57;84.07;99685.13;336409;28;4668;-71
2023/05/09 00:45:10;;;;;;;13.98;11.10;;;;;;;16.59;83.95;99691.13;336719;28;4670;-71
2023/05/09 00:45:22;;;;;;;14.52;11.60;;;;;;;16.60;84.15;99686.72;334135;28;18056;-71
2023/05/09 00:45:34;;;;;;;14.82;11.82;;;;;;;16.59;83.88;99688.53;336566;28;5295;-71
2023/05/09 00:45:47;;;;;;;15.10;11.85;;;;;;;16.59;83.88;99688.53;333848;28;18420;-71
2023/05/09 00:45:59;;;;;;;16.02;11.90;;;;;;;16.61;83.93;99686.66;336998;28;5592;-72
2023/05/09 00:46:11;;;;;;;15.52;11.63;;;;;;;16.63;84.18;99681.31;334597;28;11121;-72
2023/05/09 00:46:23;;;;;;;14.88;11.35;;;;;;;16.62;84.10;99693.59;336773;28;4821;-72
2023/05/09 00:46:37;;;;;;;15.60;11.55;;;;;;;16.56;83.83;99683.47;334992;28;18453;-73
2023/05/09 00:46:49;;;;;;;16.15;12.07;;;;;;;16.55;83.83;99687.84;336359;28;4680;-73
2023/05/09 00:47:01;;;;;;;15.85;12.30;;;;;;;16.55;83.84;99687.00;334544;28;17907;-73
2023/05/09 00:47:13;;;;;;;16.83;12.60;;;;;;;16.54;83.74;99685.28;334406;28;4653;-71
2023/05/09 00:47:26;;;;;;;17.40;12.77;;;;;;;16.53;83.95;99684.47;334735;28;8986;-71
2023/05/09 00:47:38;;;;;;;16.85;12.82;;;;;;;16.55;83.99;99681.75;337381;28;4560;-71
2023/05/09 00:47:51;;;;;;;16.08;13.15;;;;;;;16.55;83.94;99687.00;334439;28;19027;-72
2023/05/09 00:48:03;;;;;;;16.70;12.82;;;;;;;16.53;83.81;99688.88;337235;28;4508;-72
2023/05/09 00:48:17;;;;;;;16.08;12.43;;;;;;;16.53;83.79;99688.88;332860;28;17990;-72
2023/05/09 00:48:29;;;;;;;15.32;12.10;;;;;;;16.54;83.70;99685.28;337417;28;4639;-71
2023/05/09 00:48:45;;;;;;;15.52;12.35;;;;;;;16.55;83.68;99684.38;334032;28;11449;-71
2023/05/09 00:48:57;;;;;;;16.90;12.65;;;;;;;16.56;84.04;99686.94;334282;28;18736;-72
2023/05/09 00:49:11;;;;;;;18.17;12.65;;;;;;;16.60;83.99;99679.72;336998;28;4868;-72
2023/05/09 00:49:23;;;;;;;17.67;12.75;;;;;;;16.60;83.89;99682.34;334020;28;18047;-72
2023/05/09 00:49:35;;;;;;;16.83;12.63;;;;;;;16.62;83.61;99684.88;336853;28;10046;-72
2023/05/09 00:49:47;;;;;;;15.77;12.50;;;;;;;16.63;83.79;99682.16;335150;28;17541;-72
2023/05/09 00:50:00;;;;;;;17.23;12.55;;;;;;;16.64;83.53;99681.25;337279;28;4683;-72
2023/05/09 00:50:12;;;;;;;16.88;12.73;;;;;;;16.65;83.29;99677.66;334049;28;18051;-72
2023/05/09 00:50:24;;;;;;;15.60;12.57;;;;;;;16.64;83.33;99685.63;336794;28;4510;-72
2023/05/09 00:50:36;;;;;;;14.90;12.02;;;;;;;16.63;83.49;99679.53;334529;28;18281;-72
2023/05/09 00:50:51;;;;;;;14.38;11.90;;;;;;;16.62;83.42;99679.63;337375;28;5041;-73
2023/05/09 00:51:04;;;;;;;14.27;11.88;;;;;;;16.65;83.57;99682.09;334471;28;17947;-73
2023/05/09 00:51:16;;;;;;;13.95;11.75;;;;;;;16.65;83.64;99680.28;334094;28;18683;-73
2023/05/09 00:51:29;;;;;;;14.15;11.93;;;;;;;16.64;83.50;99681.25;337752;28;5093;-73
2023/05/09 00:51:41;;;;;;;14.38;12.20;;;;;;;16.66;83.47;99678.50;334471;28;18144;-72
2023/05/09 00:51:54;;;;;;;14.90;12.45;;;;;;;16.65;83.54;99675.03;337378;28;4496;-72
2023/05/09 00:52:06;;;;;;;14.48;12.27;;;;;;;16.62;83.56;99679.63;333811;28;17980;-72
2023/05/09 00:52:22;;;;;;;15.88;12.40;;;;;;;16.61;83.94;99677.94;336248;28;5467;-72
2023/05/09 00:52:35;;;;;;;19.75;12.88;;;;;;;16.61;83.71;99676.16;333266;28;17713;-73
2023/05/09 00:52:47;;;;;;;18.52;12.30;;;;;;;16.62;nan;99677.00;331662;29;18242;-73
2023/05/09 00:52:59;;;;;;;15.80;12.30;;;;;;;16.61;84.01;99676.16;334680;29;4594;-73
2023/05/09 00:53:12;;;;;;;17.13;12.55;;;;;;;16.59;83.93;99678.03;329065;29;19881;-72
2023/05/09 00:53:24;;;;;;;17.58;12.80;;;;;;;16.60;83.87;99684.97;334661;28;4682;-71
2023/05/09 00:53:36;;;;;;;16.60;12.05;;;;;;;16.62;83.82;99677.88;332031;29;17941;-71
2023/05/09 00:53:48;;;;;;;15.13;11.57;;;;;;;16.63;83.91;99674.28;334934;29;4884;-71
2023/05/09 00:54:01;;;;;;;15.68;11.98;;;;;;;16.64;83.65;99670.75;332207;29;17468;-73
2023/05/09 00:54:13;;;;;;;15.30;12.35;;;;;;;16.64;83.83;99678.63;335842;29;4483;-74
2023/05/09 00:54:25;;;;;;;15.00;12.43;;;;;;;16.67;83.84;99675.81;333354;29;9147;-73
2023/05/09 00:54:37;;;;;;;14.50;12.25;;;;;;;16.69;83.85;99679.19;335827;29;5154;-71
2023/05/09 00:54:51;;;;;;;14.20;12.43;;;;;;;16.68;83.88;99677.50;335096;29;4533;-71
2023/05/09 00:55:07;;;;;;;14.45;12.35;;;;;;;16.67;84.17;99675.81;331407;28;17961;-72
2023/05/09 00:55:19;;;;;;;14.45;11.95;;;;;;;16.71;84.19;99682.56;333784;28;18247;-73
2023/05/09 00:55:32;;;;;;;14.65;11.73;;;;;;;16.72;84.14;99679.03;333265;29;17768;-74
2023/05/09 00:55:44;;;;;;;14.38;11.38;;;;;;;16.73;84.20;99672.81;335847;29;5182;-73
2023/05/09 00:55:57;;;;;;;16.10;11.10;;;;;;;16.76;83.93;99670.03;332256;29;18358;-73
2023/05/09 00:56:10;;;;;;;16.88;11.55;;;;;;;16.77;83.91;99671.72;332789;29;5224;-72
2023/05/09 00:56:22;;;;;;;14.90;12.15;;;;;;;16.76;83.94;99675.28;331808;29;18019;-72
2023/05/09 00:56:34;;;;;;;15.38;12.65;;;;;;;16.75;84.01;99673.56;334894;29;4673;-72
2023/05/09 00:56:47;;;;;;;15.50;12.55;;;;;;;16.77;83.83;99670.88;332585;28;17946;-72
2023/05/09 00:56:59;;;;;;;15.05;11.77;;;;;;;16.78;84.05;99676.03;337460;28;4522;-71
2023/05/09 00:57:11;;;;;;;15.52;12.05;;;;;;;16.77;83.96;99676.97;333794;28;18162;-71
2023/05/09 00:57:23;;;;;;;14.55;11.95;;;;;;;16.77;83.78;99676.97;337170;28;4478;-71
2023/05/09 00:57:36;;;;;;;14.30;11.68;;;;;;;16.78;83.86;99673.41;334925;28;8938;-72
2023/05/09 00:57:48;;;;;;;14.68;11.00;;;;;;;16.78;84.07;99672.53;334861;28;5699;-71
2023/05/09 00:58:01;;;;;;;14.43;10.70;;;;;;;16.80;83.96;99672.47;333855;29;5589;-71
2023/05/09 00:58:13;;;;;;;14.25;11.13;;;;;;;16.82;83.83;99670.63;327701;29;19871;-71
2023/05/09 00:58:26;;;;;;;14.43;11.40;;;;;;;16.82;84.09;99671.50;332325;29;16316;-71
2023/05/09 00:58:38;;;;;;;14.68;11.45;;;;;;;16.81;83.85;99668.91;334669;29;4680;-72